createdAt,value
2023-03-23T15:59:30.465Z,100212.31
2023-03-23T16:01:57.928Z,100278.25
2023-03-23T16:04:27.888Z,100278.22
2023-03-23T16:06:57.416Z,100285.63
2023-03-23T16:09:24.005Z,100306.59
2023-03-23T16:11:51.340Z,100278.25
2023-03-23T16:14:18.177Z,100315.06
2023-03-23T16:16:51.092Z,100237.28
2023-03-23T16:19:20.363Z,100255.00
2023-03-23T16:21:47.296Z,100314.91
2023-03-23T16:24:13.966Z,100302.59
2023-03-23T16:26:41.201Z,100291.69
2023-03-23T16:29:28.957Z,100307.09
2023-03-23T16:32:03.994Z,100305.53
2023-03-23T16:34:38.688Z,100314.78
2023-03-23T16:37:07.035Z,100313.72
2023-03-23T16:39:36.172Z,100259.66
2023-03-23T16:42:05.018Z,100318.34
2023-03-23T16:44:31.714Z,100257.72
2023-03-23T16:46:58.531Z,100281.94
2023-03-23T16:49:25.147Z,100318.44
2023-03-23T16:51:52.023Z,100318.41
2023-03-23T16:54:18.681Z,100313.44
2023-03-23T16:56:46.994Z,100248.47
2023-03-23T16:59:14.239Z,100299.66
2023-03-23T17:01:41.435Z,100296.78
2023-03-23T17:04:13.149Z,100288.22
2023-03-23T17:06:39.852Z,100246.28
2023-03-23T17:09:07.894Z,100288.63
2023-03-23T17:11:34.778Z,100236.94
2023-03-23T17:14:01.553Z,100236.47
2023-03-23T17:16:30.815Z,100290.84
2023-03-23T17:18:57.610Z,100254.91
2023-03-23T17:21:27.117Z,100230.91
2023-03-23T17:23:54.390Z,100196.69
2023-03-23T17:26:21.250Z,100275.78
2023-03-23T17:28:50.126Z,100286.78
2023-03-23T17:31:16.869Z,100277.19
2023-03-23T17:33:43.663Z,100233.94
2023-03-23T17:36:10.800Z,100257.78
2023-03-23T17:38:42.439Z,100231.81
2023-03-23T17:41:11.674Z,100276.88
2023-03-23T17:43:41.443Z,100273.09
2023-03-23T17:46:10.248Z,100273.94
2023-03-23T17:48:39.652Z,100227.00
2023-03-23T17:51:06.916Z,100276.03
2023-03-23T17:53:35.802Z,100284.97
2023-03-23T17:56:03.739Z,100292.13
2023-03-23T17:58:30.445Z,100273.13
2023-03-23T18:00:57.639Z,100277.94
2023-03-23T18:03:25.611Z,100285.34
2023-03-23T18:05:57.687Z,100268.50
2023-03-23T18:08:26.223Z,100207.44
2023-03-23T18:10:54.763Z,100263.19
2023-03-23T18:13:21.863Z,100277.41
2023-03-23T18:15:48.865Z,100229.41
2023-03-23T18:18:16.726Z,100253.53
2023-03-23T18:20:43.430Z,100220.41
2023-03-23T18:23:14.920Z,100188.06
2023-03-23T18:25:44.125Z,100247.19
2023-03-23T18:28:15.331Z,100191.38
2023-03-23T18:30:42.832Z,100227.81
2023-03-23T18:33:09.515Z,100177.19
2023-03-23T18:35:38.450Z,100197.59
2023-03-23T18:38:07.878Z,100225.53
2023-03-23T18:40:36.969Z,100223.53
2023-03-23T18:43:03.593Z,100160.84
2023-03-23T18:45:33.762Z,100151.53
2023-03-23T18:48:00.637Z,100200.56
2023-03-23T18:50:28.045Z,100212.00
2023-03-23T18:52:54.725Z,100210.78
2023-03-23T18:55:22.161Z,100213.72
2023-03-23T18:57:50.361Z,100216.66
2023-03-23T19:00:18.342Z,100154.16
2023-03-23T19:02:45.024Z,100146.06
2023-03-23T19:05:18.867Z,100133.97
2023-03-23T19:07:47.747Z,100180.53
2023-03-23T19:10:14.406Z,100013.28
2023-03-23T19:12:41.722Z,100135.69
2023-03-23T19:15:08.582Z,100171.22
2023-03-23T19:17:36.751Z,100207.25
2023-03-23T19:20:05.280Z,100144.75
2023-03-23T19:22:32.876Z,100203.19
2023-03-23T19:24:59.951Z,100126.50
2023-03-23T19:27:26.763Z,100112.03
2023-03-23T19:29:53.544Z,100102.94
2023-03-23T19:32:21.048Z,100115.06
2023-03-23T19:34:51.166Z,100166.38
2023-03-23T19:37:18.876Z,100166.75
2023-03-23T19:39:45.584Z,100146.72
2023-03-23T19:42:16.725Z,100142.28
2023-03-23T19:44:43.936Z,100102.22
2023-03-23T19:47:10.893Z,100109.31
2023-03-23T19:49:38.899Z,100120.53
2023-03-23T19:52:12.670Z,100160.16
2023-03-23T19:54:41.060Z,100101.25
2023-03-23T19:57:10.186Z,100103.31
2023-03-23T19:59:38.414Z,100150.59
2023-03-23T20:02:08.153Z,100095.00
2023-03-23T20:04:37.585Z,100101.09
2023-03-23T20:07:07.487Z,100096.19
2023-03-23T20:09:35.011Z,100141.91
2023-03-23T20:12:01.694Z,100139.56
2023-03-23T20:14:28.360Z,100138.13
2023-03-23T20:16:57.698Z,100153.53
2023-03-23T20:19:24.344Z,100146.06
2023-03-23T20:21:52.317Z,100080.03
2023-03-23T20:24:20.504Z,100124.69
2023-03-23T20:26:49.802Z,100126.78
2023-03-23T20:29:16.578Z,100065.53
2023-03-23T20:31:43.335Z,100125.25
2023-03-23T20:34:13.205Z,100052.31
2023-03-23T20:36:42.776Z,100032.56
2023-03-23T20:39:12.688Z,100118.84
2023-03-23T20:41:43.323Z,100101.47
2023-03-23T20:44:15.982Z,100099.09
2023-03-23T20:46:46.531Z,100119.59
2023-03-23T20:49:17.648Z,100117.44
2023-03-23T20:51:48.385Z,100100.44
2023-03-23T20:54:16.340Z,100114.88
2023-03-23T20:56:43.808Z,100108.75
2023-03-23T20:59:12.066Z,100109.13
2023-03-23T21:01:40.033Z,100106.38
2023-03-23T21:04:15.788Z,100093.72
2023-03-23T21:06:46.817Z,100018.69
2023-03-23T21:09:17.430Z,100031.63
2023-03-23T21:11:44.701Z,100089.00
2023-03-23T21:14:14.677Z,100037.97
2023-03-23T21:16:42.188Z,100068.84
2023-03-23T21:19:09.845Z,100044.19
2023-03-23T21:21:36.999Z,100066.28
2023-03-23T21:24:06.370Z,100022.09
2023-03-23T21:26:32.990Z,99987.28
2023-03-23T21:29:09.808Z,100073.50
2023-03-23T21:31:37.291Z,99993.13
2023-03-23T21:34:07.750Z,100003.44
2023-03-23T21:36:40.404Z,100043.06
2023-03-23T21:39:10.404Z,100066.00
2023-03-23T21:41:41.754Z,99989.47
2023-03-23T21:44:13.618Z,99924.53
2023-03-23T21:46:43.303Z,100063.00
2023-03-23T21:49:14.210Z,100031.44
2023-03-23T21:51:42.857Z,100064.22
2023-03-23T21:54:12.679Z,99990.69
2023-03-23T21:56:39.727Z,99996.25
2023-03-23T21:59:07.893Z,99951.38
2023-03-23T22:01:37.334Z,100007.97
2023-03-23T22:04:04.882Z,100026.13
2023-03-23T22:06:34.374Z,100025.47
2023-03-23T22:09:05.561Z,100020.38
2023-03-23T22:11:33.235Z,99957.81
2023-03-23T22:14:00.902Z,99992.66
2023-03-23T22:16:30.604Z,99981.63
2023-03-23T22:19:00.174Z,100008.44
2023-03-23T22:21:27.531Z,99936.84
2023-03-23T22:23:58.143Z,99949.59
2023-03-23T22:26:27.270Z,99930.72
2023-03-23T22:28:54.766Z,99926.63
2023-03-23T22:31:24.518Z,99989.09
2023-03-23T22:33:56.130Z,99947.59
2023-03-23T22:36:24.928Z,99964.31
2023-03-23T22:38:52.168Z,99977.81
2023-03-23T22:41:31.734Z,99896.06
2023-03-23T22:44:03.395Z,99916.34
2023-03-23T22:46:32.772Z,99927.50
2023-03-23T22:48:59.528Z,99896.06
2023-03-23T22:51:26.471Z,99897.06
2023-03-23T22:53:57.088Z,99949.78
2023-03-23T22:56:26.779Z,99887.56
2023-03-23T22:58:54.697Z,99930.06
2023-03-23T23:01:25.224Z,99932.22
2023-03-23T23:03:54.348Z,99930.53
2023-03-23T23:06:21.971Z,99942.78
2023-03-23T23:08:49.610Z,99865.66
2023-03-23T23:11:18.487Z,99932.22
2023-03-23T23:13:46.198Z,99920.59
2023-03-23T23:16:14.627Z,99925.25
2023-03-23T23:18:43.753Z,99916.56
2023-03-23T23:21:14.838Z,99911.94
2023-03-23T23:23:46.350Z,99850.81
2023-03-23T23:26:19.990Z,99866.59
2023-03-23T23:28:48.652Z,99917.59
2023-03-23T23:31:29.401Z,99891.25
2023-03-23T23:33:57.541Z,99712.75
2023-03-23T23:36:30.579Z,99826.41
2023-03-23T23:39:01.297Z,99878.44
2023-03-23T23:41:30.097Z,99877.75
2023-03-23T23:43:57.242Z,99867.84
2023-03-23T23:46:24.902Z,99864.66
2023-03-23T23:48:51.650Z,99884.09
2023-03-23T23:51:18.698Z,99816.69
2023-03-23T23:53:47.275Z,99795.75
2023-03-23T23:56:14.460Z,99853.13
2023-03-23T23:58:43.645Z,99787.09
